createdAt,value
2024-05-09T18:28:47.349Z,5.80
2024-05-09T18:31:49.034Z,5.30
2024-05-09T18:34:50.829Z,5.03
2024-05-09T18:40:54.752Z,5.82
2024-05-09T18:43:57.201Z,5.55
2024-05-09T18:46:58.923Z,5.10
2024-05-09T18:56:04.767Z,3.30
2024-05-09T18:59:06.470Z,3.08
2024-05-09T19:02:08.428Z,3.55
2024-05-09T19:05:10.247Z,2.90
2024-05-09T19:08:12.048Z,3.00
2024-05-09T19:11:13.769Z,3.20
2024-05-09T19:14:15.662Z,3.13
2024-05-09T19:17:17.354Z,3.00
2024-05-09T19:20:25.453Z,2.53
2024-05-09T19:23:38.078Z,2.60
2024-05-09T19:26:42.597Z,2.90
2024-05-09T19:29:44.249Z,2.78
2024-05-09T19:35:48.408Z,2.70
2024-05-09T19:38:51.500Z,3.42
2024-05-09T19:41:53.258Z,3.30
2024-05-09T19:44:55.201Z,3.20
2024-05-09T19:47:57.077Z,3.70
2024-05-09T19:50:58.982Z,3.33
2024-05-09T19:54:00.786Z,2.95
2024-05-09T19:57:02.483Z,2.90
2024-05-09T20:00:05.882Z,3.33
2024-05-09T20:03:08.312Z,3.17
2024-05-09T20:06:10.195Z,3.10
2024-05-09T20:12:13.830Z,3.15
2024-05-09T20:15:15.498Z,3.17
2024-05-09T20:21:19.043Z,2.80
2024-05-09T20:24:21.007Z,3.00
2024-05-09T20:27:22.686Z,2.70
2024-05-09T20:33:35.328Z,2.80
2024-05-09T20:36:37.118Z,2.85
2024-05-09T20:39:39.236Z,2.40
2024-05-09T20:42:41.264Z,3.10
2024-05-09T20:45:42.968Z,3.30
2024-05-09T20:48:44.795Z,3.00
2024-05-09T20:51:46.667Z,3.28
2024-05-09T20:54:48.654Z,3.33
2024-05-09T20:57:50.352Z,2.90
2024-05-09T21:00:52.169Z,3.10
2024-05-09T21:03:54.073Z,3.15
2024-05-09T21:06:55.926Z,3.10
2024-05-09T21:09:57.640Z,2.80
